Halls Crossing, Utah
Current Conditions -  °F | °C
As of 7:35 PM on Thursday 20 Nov 2014 (Local Time) from KBDG Reporting Station
Overcast Overcast  
Wind Chill: 29°   Ceiling: 9500
Heat Index: 35°   Visibility: 10mi
Dew Point: 22°   Wind: 7mph
Humidity: 60%   Direction: 350°N
Pressure: 30.15"   Gusts: NA
Location:  37.6208°N, 109.479°W
Report Text: KBDG 210235Z AUTO 35006KT 10SM OVC095 02/M05 A3015 RMK AO1 T00171054
Loading
Personal Weather Stations






























Interactive Weather Map New forecast layout! Learn more

10-Day Weather Forecast

Advertisements
Track Severe Weather on mobile